Latest Weather Observations for Ballina

IDN60801

Issued at 3:52 pm EDT Saturday 29 February 2020 (issued every 10 minutes, with the page automatically refreshed every 10 minutes)

About weather observations | Map of weather stations | Latest weather observations for NSW | Other Formats
Station Details ID: 058198 Name: BALLINA AIRPORT AWS Lat: -28.84 Lon: 153.56 Height: 1.3 m
Data from the previous 72 hours. | See also: Recent months at Ballina
Date/Time
EDT
Temp
°C
App
Temp
°C
Dew
Point
°C
Rel
Hum
%
Delta-T
°C
Wind Press
QNH
hPa
Press
MSL
hPa
Rain since
9am
mm
Dir  Spd
km/h
Gust
km/h
Spd
kts
Gust
kts
29/03:30pm 25.5 28.4 23.2 87 1.6 SSW 13 19 7 10 1013.1 1013.1 3.0
29/03:00pm 24.3 27.4 22.9 92 0.9 WSW 11 17 6 9 1013.4 1013.4 3.0
29/02:30pm 24.2 27.4 22.3 89 1.3 S 9 20 5 11 1013.7 1013.7 3.0
29/02:13pm 24.8 27.9 23.6 93 0.8 S 13 19 7 10 1014.0 1014.0 3.0
29/02:00pm 23.5 26.0 22.5 94 0.7 S 13 24 7 13 1014.1 1014.1 3.0
29/01:30pm 23.9 25.0 22.0 89 1.3 SW 19 28 10 15 1014.3 1014.3 0.4
29/01:26pm 24.3 25.3 22.2 88 1.4 SSW 20 28 11 15 1014.3 1014.3 0.4
29/01:00pm 26.6 27.0 21.8 75 3.2 SSW 22 33 12 18 1014.4 1014.4 0.0
29/12:30pm 27.1 27.3 22.1 74 3.4 SSW 24 35 13 19 1014.7 1014.7 0.0
29/12:00pm 26.8 27.1 22.2 76 3.1 SSW 24 35 13 19 1014.9 1014.9 0.0
29/11:30am 25.2 25.1 21.5 80 2.5 SSW 24 39 13 21 1015.1 1015.1 0.0
29/11:00am 25.1 24.9 21.2 79 2.6 SSW 24 35 13 19 1015.2 1015.2 0.0
29/10:30am 25.5 25.3 21.2 77 2.8 SSW 24 35 13 19 1015.0 1015.0 0.0
29/10:00am 25.0 25.6 21.3 80 2.4 SSW 20 32 11 17 1015.0 1015.0 0.0
29/09:30am 23.5 24.3 20.6 84 1.9 SW 17 24 9 13 1015.0 1015.0 0.0
29/09:00am 22.2 24.1 20.5 90 1.1 W 11 15 6 8 1014.9 1014.9 9.8
29/08:30am 21.0 22.8 19.5 91 1.0 N 9 11 5 6 1014.9 1014.9 9.8
29/08:00am 21.0 23.5 19.8 93 0.8 W 6 13 3 7 1014.6 1014.6 9.8
29/07:30am 20.9 23.5 20.1 95 0.5 W 6 13 3 7 1014.2 1014.2 9.8
29/07:22am 20.8 23.4 20.1 96 0.4 W 6 15 3 8 1014.2 1014.2 9.8
29/07:00am 20.6 22.0 20.3 98 0.2 WSW 13 19 7 10 1013.9 1013.9 8.4
29/06:30am 20.7 21.2 20.0 96 0.4 SW 17 26 9 14 1013.6 1013.6 3.6
29/06:14am 20.9 21.8 20.1 95 0.5 SW 15 20 8 11 1013.4 1013.4 2.0
29/06:00am 21.2 21.9 20.4 95 0.5 SW 17 22 9 12 1013.2 1013.2 1.6
29/05:43am 21.3 22.4 20.5 95 0.5 WSW 15 22 8 12 1013.1 1013.1 1.6
29/05:30am 21.3 22.0 20.5 95 0.5 WSW 17 24 9 13 1012.9 1012.9 1.4
29/05:25am 21.4 22.2 20.6 95 0.5 WSW 17 24 9 13 1012.9 1012.9 1.2
29/05:20am 21.5 21.8 20.5 94 0.6 WSW 19 30 10 16 1012.9 1012.9 0.6
29/05:04am 21.9 22.7 20.7 93 0.8 SW 17 20 9 11 1012.7 1012.7 0.6
29/05:00am 22.0 22.8 20.6 92 0.9 SW 17 24 9 13 1012.8 1012.8 0.4
29/04:30am 22.3 22.7 20.9 92 0.9 WSW 20 24 11 13 1012.5 1012.5 0.2
29/04:00am 22.7 23.8 21.2 91 1.0 WSW 17 22 9 12 1012.4 1012.4 0.2
29/03:30am 24.8 26.5 20.9 79 2.6 SE 13 19 7 10 1012.3 1012.3 0.2
29/03:00am 24.3 26.3 20.8 81 2.3 SE 11 17 6 9 1012.1 1012.1 0.2
29/02:30am 24.7 26.1 21.0 80 2.4 SE 15 20 8 11 1012.4 1012.4 0.2
29/02:00am 24.6 26.5 21.3 82 2.2 SE 13 20 7 11 1012.7 1012.7 0.2
29/01:30am 24.5 26.7 21.8 85 1.8 SE 13 17 7 9 1012.7 1012.7 0.2
29/01:00am 24.5 27.4 21.8 85 1.8 SE 9 13 5 7 1012.6 1012.6 0.2
29/12:30am 24.8 26.4 21.5 82 2.2 SE 15 20 8 11 1012.4 1012.4 0.2
29/12:00am 24.9 27.3 21.6 82 2.2 SE 11 19 6 10 1012.4 1012.4 0.2
 
Date/Time
EDT
Temp
°C
App
Temp
°C
Dew
Point
°C
Rel
Hum
%
Delta-T
°C
Wind Press
QNH
hPa
Press
MSL
hPa
Rain since
9am
mm
Dir  Spd
km/h
Gust
km/h
Spd
kts
Gust
kts
28/11:30pm 24.4 26.8 21.5 84 1.9 ESE 11 15 6 8 1012.4 1012.4 0.2
28/11:00pm 24.7 27.1 21.6 83 2.1 ESE 11 15 6 8 1012.4 1012.4 0.2
28/10:30pm 24.8 27.7 21.7 83 2.1 ESE 9 15 5 8 1012.4 1012.4 0.2
28/10:00pm 24.9 27.5 22.0 84 1.9 ESE 11 15 6 8 1012.0 1012.0 0.2
28/09:30pm 25.0 27.5 21.7 82 2.2 ESE 11 19 6 10 1011.7 1011.7 0.2
28/09:00pm 25.0 27.6 21.9 83 2.1 ESE 11 15 6 8 1011.4 1011.4 0.2
28/08:30pm 25.3 27.3 21.6 80 2.5 ESE 13 20 7 11 1011.0 1011.0 0.2
28/08:00pm 25.7 27.6 22.0 80 2.5 ESE 15 22 8 12 1010.6 1010.6 0.2
28/07:30pm 25.8 27.7 22.7 83 2.1 ESE 17 22 9 12 1010.1 1010.1 0.2
28/07:00pm 25.9 27.7 22.6 82 2.2 ESE 17 26 9 14 1009.7 1009.7 0.2
28/06:30pm 26.3 27.6 22.4 79 2.6 SE 19 26 10 14 1009.1 1009.1 0.2
28/06:00pm 26.8 28.2 22.6 78 2.8 SE 19 26 10 14 1008.5 1008.5 0.2
28/05:30pm 27.3 28.8 23.1 78 2.9 ESE 20 28 11 15 1008.1 1008.1 0.2
28/05:00pm 27.3 28.6 22.7 76 3.1 SE 20 28 11 15 1007.7 1007.7 0.2
28/04:30pm 28.2 30.0 23.6 76 3.2 SE 20 30 11 16 1007.6 1007.6 0.2
28/04:00pm 28.3 29.9 23.9 77 3.0 ESE 22 32 12 17 1007.3 1007.3 0.2
28/03:30pm 28.6 30.6 23.9 75 3.2 SSE 20 28 11 15 1007.5 1007.5 0.2
28/03:00pm 28.2 29.3 23.1 74 3.5 SSE 22 30 12 16 1007.7 1007.7 0.2
28/02:30pm 28.5 28.8 22.3 69 4.2 SSE 24 30 13 16 1007.7 1007.7 0.2
28/02:00pm 28.3 28.2 20.8 63 5.0 SSE 22 30 12 16 1008.0 1008.0 0.2
28/01:30pm 28.8 30.1 22.3 68 4.4 SSE 19 24 10 13 1008.1 1008.1 0.2
28/01:00pm 28.5 29.9 22.5 70 4.1 SE 19 22 10 12 1008.1 1008.1 0.2
28/12:30pm 28.4 29.8 22.9 72 3.7 SSE 20 26 11 14 1008.4 1008.4 0.2
28/12:00pm 28.2 29.5 22.4 71 3.9 SSE 19 22 10 12 1008.4 1008.4 0.0
28/11:30am 28.7 31.9 22.4 68 4.3 S 9 19 5 10 1008.6 1008.6 0.0
28/11:00am 28.0 30.3 21.3 67 4.5 WSW 11 17 6 9 1008.6 1008.6 0.0
28/10:30am 28.3 31.0 22.8 72 3.7 SSW 13 17 7 9 1008.6 1008.6 0.0
28/10:00am 27.3 29.5 21.8 72 3.7 WSW 13 17 7 9 1008.4 1008.4 0.0
28/09:30am 26.5 27.7 21.5 74 3.3 WSW 17 19 9 10 1008.3 1008.3 0.0
28/09:00am 25.4 26.7 21.7 80 2.5 WSW 17 22 9 12 1008.3 1008.3 0.0
28/08:30am 24.2 27.4 21.7 86 1.7 W 7 11 4 6 1008.1 1008.1 0.0
28/08:00am 22.9 26.2 21.5 92 0.9 W 6 7 3 4 1008.1 1008.1 0.0
28/07:30am 21.8 25.3 21.1 96 0.5 W 4 7 2 4 1008.1 1008.1 0.0
28/07:00am 21.1 23.4 20.6 97 0.3 WSW 9 13 5 7 1007.8 1007.8 0.0
28/06:30am 21.1 23.0 20.6 97 0.3 WSW 11 15 6 8 1007.7 1007.7 0.0
28/06:00am 20.9 23.2 20.6 98 0.2 W 9 11 5 6 1007.3 1007.3 0.0
28/05:30am 20.9 22.8 20.6 98 0.2 W 11 13 6 7 1007.2 1007.2 0.0
28/05:00am 21.0 23.3 20.7 98 0.2 W 9 11 5 6 1007.0 1007.0 0.0
28/04:30am 21.1 23.5 20.8 98 0.2 W 9 11 5 6 1006.8 1006.8 0.0
28/04:28am 21.1 23.5 20.8 98 0.2 W 9 11 5 6 1006.8 1006.8 0.0
28/04:16am 20.8 23.0 20.5 98 0.2 W 9 9 5 5 1006.8 1006.8 0.0
28/04:00am 21.0 25.1 20.7 98 0.2 CALM 0 0 0 0 1006.9 1006.9 0.0
28/03:50am 21.0 25.1 20.7 98 0.2 CALM 0 0 0 0 1007.0 1007.0 0.0
28/03:34am 20.8 24.7 20.3 97 0.3 CALM 0 0 0 0 1007.2 1007.2 0.0
28/03:30am 20.9 24.8 20.4 97 0.3 CALM 0 0 0 0 1007.1 1007.1 0.0
28/03:00am 21.2 25.3 20.7 97 0.3 CALM 0 0 0 0 1007.2 1007.2 0.0
28/02:30am 21.4 24.2 20.9 97 0.3 W 7 9 4 5 1007.3 1007.3 0.0
28/02:00am 21.4 24.2 20.9 97 0.3 W 7 9 4 5 1007.6 1007.6 0.0
28/01:30am 21.5 24.4 21.0 97 0.3 NW 7 9 4 5 1008.0 1008.0 0.0
28/01:00am 21.5 25.7 21.0 97 0.3 CALM 0 0 0 0 1008.1 1008.1 0.0
28/12:30am 21.8 25.0 21.3 97 0.3 NW 6 7 3 4 1008.3 1008.3 0.0
28/12:00am 22.0 25.3 21.5 97 0.3 N 6 7 3 4 1008.8 1008.8 0.0
 
Date/Time
EDT
Temp
°C
App
Temp
°C
Dew
Point
°C
Rel
Hum
%
Delta-T
°C
Wind Press
QNH
hPa
Press
MSL
hPa
Rain since
9am
mm
Dir  Spd
km/h
Gust
km/h
Spd
kts
Gust
kts
27/11:30pm 21.5 25.2 20.8 96 0.5 N 2 6 1 3 1008.7 1008.7 0.0
27/11:00pm 22.0 26.5 21.5 97 0.3 CALM 0 0 0 0 1008.5 1008.5 0.0
27/10:30pm 21.8 26.1 21.1 96 0.5 CALM 0 0 0 0 1008.5 1008.5 0.0
27/10:00pm 22.1 25.1 21.3 95 0.5 WSW 7 9 4 5 1008.4 1008.4 0.0
27/09:30pm 22.2 25.4 21.2 94 0.7 W 6 7 3 4 1008.2 1008.2 0.0
27/09:00pm 22.3 24.6 21.3 94 0.7 WSW 11 13 6 7 1008.1 1008.1 0.0
27/08:30pm 22.3 25.3 21.3 94 0.7 W 7 11 4 6 1007.6 1007.6 0.0
27/08:00pm 22.4 26.3 21.2 93 0.8 WSW 2 6 1 3 1007.2 1007.2 0.0
27/07:30pm 22.5 25.4 21.1 92 0.9 WSW 7 9 4 5 1007.5 1007.5 0.0
27/07:00pm 22.6 25.6 21.2 92 0.9 NNW 7 11 4 6 1007.4 1007.4 0.0
27/06:30pm 23.0 26.3 21.8 93 0.8 N 7 13 4 7 1007.3 1007.3 0.0
27/06:00pm 23.0 24.4 21.8 93 0.8 NNE 17 24 9 13 1007.4 1007.4 0.0
27/05:30pm 26.1 29.3 23.0 83 2.1 SSE 11 19 6 10 1007.1 1007.1 0.0
27/05:00pm 26.2 28.6 22.9 82 2.2 S 15 20 8 11 1007.1 1007.1 0.0
27/04:30pm 26.4 28.1 23.1 82 2.2 SSE 19 24 10 13 1007.1 1007.1 0.0
27/04:00pm 26.4 27.9 23.1 82 2.2 S 20 28 11 15 1007.3 1007.3 0.0
27/03:30pm 26.5 27.6 23.0 81 2.4 S 22 30 12 16 1007.5 1007.5 0.0
27/03:00pm 26.3 26.7 22.4 79 2.6 S 24 33 13 18 1007.6 1007.6 0.0
27/02:30pm 26.7 27.5 23.2 81 2.4 S 24 37 13 20 1007.7 1007.7 0.0
27/02:00pm 26.0 26.9 22.7 82 2.2 S 22 37 12 20 1007.7 1007.7 0.0
27/01:30pm 25.6 25.4 22.1 81 2.3 S 26 37 14 20 1007.6 1007.6 0.0
27/01:00pm 26.0 26.2 22.1 79 2.6 SSW 24 33 13 18 1008.1 1008.1 0.0
27/12:30pm 26.5 27.2 23.0 81 2.4 SSW 24 35 13 19 1008.3 1008.3 0.0
27/12:00pm 26.1 25.3 22.4 80 2.5 S 30 41 16 22 1008.7 1008.7 0.0
27/11:30am 26.6 26.7 23.3 82 2.2 SSW 28 39 15 21 1008.9 1008.9 0.0
27/11:00am 25.9 26.5 22.8 83 2.1 S 24 32 13 17 1009.1 1009.1 0.0
27/10:30am 25.7 27.2 23.0 85 1.8 S 20 32 11 17 1009.0 1009.0 0.0
27/10:00am 25.4 27.2 22.5 84 2.0 SSW 17 26 9 14 1009.1 1009.1 0.0
27/09:30am 24.6 25.7 21.9 85 1.8 SSW 19 28 10 15 1008.9 1008.9 0.0
27/09:00am 24.5 26.3 22.6 89 1.3 SSW 17 24 9 13 1008.4 1008.4 20.6
27/08:30am 23.1 25.9 22.3 95 0.5 SSW 11 15 6 8 1008.4 1008.4 20.6
27/08:00am 22.3 26.3 21.3 94 0.7 SSW 2 6 1 3 1008.1 1008.1 20.6
27/07:30am 21.5 25.4 21.2 98 0.2 WNW 2 7 1 4 1007.8 1007.8 20.6
27/07:00am 20.3 24.1 20.1 99 0.1 CALM 0 0 0 0 1007.7 1007.7 20.6
27/06:30am 20.3 23.6 20.0 98 0.2 N 2 7 1 4 1007.6 1007.6 20.6
27/06:00am 20.9 23.6 20.7 99 0.1 NNW 7 9 4 5 1006.8 1006.8 20.6
27/05:30am 20.6 24.5 20.4 99 0.1 CALM 0 0 0 0 1006.4 1006.4 20.6
27/05:00am 20.5 23.0 20.2 98 0.2 SSE 7 9 4 5 1006.2 1006.2 20.6
27/04:30am 20.5 23.9 20.2 98 0.2 W 2 6 1 3 1006.0 1006.0 20.6
27/04:00am 21.0 23.9 20.7 98 0.2 WNW 6 7 3 4 1006.2 1006.2 20.6
27/03:30am 21.1 25.2 20.8 98 0.2 CALM 0 7 0 4 1006.4 1006.4 20.6
27/03:00am 21.2 23.6 20.9 98 0.2 NNE 9 11 5 6 1006.6 1006.6 20.6
27/02:30am 21.3 24.1 20.8 97 0.3 SW 7 13 4 7 1007.5 1007.5 20.6
27/02:00am 21.6 24.1 21.1 97 0.3 N 9 11 5 6 1007.3 1007.3 20.6
27/01:30am 21.6 22.5 20.9 96 0.5 NNW 17 20 9 11 1008.0 1008.0 20.6
27/01:00am 21.6 22.9 20.9 96 0.5 NNW 15 20 8 11 1008.4 1008.4 20.6
27/12:30am 21.4 22.6 20.6 95 0.5 NNW 15 19 8 10 1008.9 1008.9 20.6
27/12:00am 21.2 23.5 20.7 97 0.3 NNW 9 13 5 7 1008.8 1008.8 20.6
 
Date/Time
EDT
Temp
°C
App
Temp
°C
Dew
Point
°C
Rel
Hum
%
Delta-T
°C
Wind Press
QNH
hPa
Press
MSL
hPa
Rain since
9am
mm
Dir  Spd
km/h
Gust
km/h
Spd
kts
Gust
kts
26/11:30pm 21.0 21.8 20.7 98 0.2 N 17 20 9 11 1009.0 1009.0 20.6
26/11:00pm 20.6 20.9 20.4 99 0.1 NW 19 28 10 15 1009.2 1009.2 20.6
26/10:54pm 20.8 22.0 20.6 99 0.1 NNW 15 19 8 10 1009.2 1009.2 20.6
26/10:30pm 20.9 22.3 20.4 97 0.3 SE 13 24 7 13 1010.2 1010.2 16.8
26/10:21pm 21.0 19.9 20.2 95 0.5 W 26 44 14 24 1010.9 1010.9 8.0
26/10:09pm 22.3 19.2 20.4 89 1.2 W 37 67 20 36 1010.1 1010.1 1.0
26/10:03pm 25.3 27.5 23.9 92 1.0 NW 19 50 10 27 1010.2 1010.2 0.2
26/10:00pm 25.4 28.8 24.0 92 1.0 NNW 13 26 7 14 1009.2 1009.2 0.2
26/09:30pm 25.8 29.5 23.3 86 1.7 NNE 9 15 5 8 1008.7 1008.7 0.0
26/09:00pm 26.0 28.7 23.5 86 1.7 N 15 24 8 13 1008.0 1008.0 0.0
26/08:30pm 26.0 28.5 23.1 84 2.0 NNE 15 20 8 11 1007.9 1007.9 0.0
26/08:00pm 26.1 28.1 23.0 83 2.1 N 17 24 9 13 1007.4 1007.4 0.0
26/07:30pm 26.1 28.3 23.2 84 2.0 NNE 17 22 9 12 1007.5 1007.5 0.0
26/07:00pm 26.2 27.9 23.1 83 2.1 NNE 19 26 10 14 1006.6 1006.6 0.0
26/06:30pm 26.7 28.4 23.0 80 2.5 NNE 19 28 10 15 1006.8 1006.8 0.0
26/06:00pm 26.8 28.3 23.1 80 2.5 NNE 20 32 11 17 1006.8 1006.8 0.0
26/05:30pm 26.9 28.3 22.9 79 2.7 NNE 20 28 11 15 1006.7 1006.7 0.0
26/05:00pm 27.1 27.4 22.9 78 2.9 N 26 35 14 19 1006.4 1006.4 0.0
26/04:30pm 27.8 28.0 23.4 77 3.0 NNE 28 35 15 19 1006.6 1006.6 0.0
26/04:00pm 27.9 27.6 23.9 79 2.8 NE 32 39 17 21 1006.8 1006.8 0.0

Other formats

Comma delimited format used in spreadsheet applications
http://www.bom.gov.au/fwo/IDN60801/IDN60801.94596.axf

JavaScript Object Notation format (JSON) in row-major order
http://www.bom.gov.au/fwo/IDN60801/IDN60801.94596.json

Data quality

Most of these data are generated automatically and are frequently updated. Quality checks on data are not normally performed. It is possible for incorrect values to appear. Refer to information at About Latest Weather Observations and please check the disclaimer before using these data.